Time;durP1;ratioP1;P1;durP2;ratioP2;P2;SDS_P1;SDS_P2;PMS_P1;PMS_P2;Temp;Humidity;BMP_temperature;BMP_pressure;BME280_temperature;BME280_humidity;BME280_pressure;Samples;Min_cycle;Max_cycle;Signal;HPM_P1;HPM_P2
2023/09/27 00:00:59;;;;;;;11.98;10.35;;;;;;;14.07;100.00;101519.66;5025578;28;20037;-86
2023/09/27 00:03:24;;;;;;;13.10;10.83;;;;;;;14.01;100.00;101506.91;5042057;28;20127;-87
2023/09/27 00:05:50;;;;;;;16.37;10.97;;;;;;;13.99;100.00;101516.97;5024308;28;20033;-87
2023/09/27 00:08:15;;;;;;;13.40;11.13;;;;;;;13.98;100.00;101513.47;5018644;28;20032;-87
2023/09/27 00:10:41;;;;;;;11.20;9.45;;;;;;;13.96;100.00;101504.72;5031432;28;20789;-87
2023/09/27 00:13:06;;;;;;;12.13;9.95;;;;;;;13.92;100.00;101496.16;5029654;28;20546;-86
2023/09/27 00:15:32;;;;;;;9.13;7.67;;;;;;;13.87;100.00;101503.03;5047462;28;20045;-87
2023/09/27 00:17:58;;;;;;;12.73;11.00;;;;;;;13.87;100.00;101497.66;5044394;28;20309;-88
2023/09/27 00:20:24;;;;;;;;;;;;;;;13.88;100.00;101500.19;5049256;28;20037;-86
2023/09/27 00:22:51;;;;;;;17.23;12.35;;;;;;;13.82;100.00;101500.03;5048279;28;19917;-87
2023/09/27 00:25:16;;;;;;;15.25;9.98;;;;;;;13.82;100.00;101505.38;5033460;28;20024;-86
2023/09/27 00:27:42;;;;;;;11.23;10.07;;;;;;;13.81;100.00;101514.41;5027603;28;20132;-86
2023/09/27 00:30:09;;;;;;;11.02;9.90;;;;;;;13.88;100.00;101527.03;5032343;28;20096;-87
2023/09/27 00:32:34;;;;;;;18.33;15.18;;;;;;;13.92;100.00;101533.72;5042589;28;20112;-86
2023/09/27 00:35:01;;;;;;;16.50;13.05;;;;;;;13.96;100.00;101544.16;5023894;28;20487;-87
2023/09/27 00:37:26;;;;;;;25.13;17.08;;;;;;;14.04;100.00;101562.94;5029220;28;20036;-87
2023/09/27 00:39:52;;;;;;;18.97;14.00;;;;;;;14.08;100.00;101567.00;5029999;28;20020;-86
2023/09/27 00:42:17;;;;;;;17.30;13.60;;;;;;;14.09;100.00;101544.50;5050340;28;20294;-88
2023/09/27 00:44:43;;;;;;;13.67;10.90;;;;;;;13.97;100.00;101524.34;5025566;28;20139;-88
2023/09/27 00:47:09;;;;;;;18.55;13.93;;;;;;;13.94;100.00;101526.34;5026791;28;20016;-86
2023/09/27 00:49:35;;;;;;;21.58;15.70;;;;;;;14.00;100.00;101534.75;5031786;28;20595;-86
2023/09/27 00:52:02;;;;;;;21.35;15.35;;;;;;;13.96;100.00;101528.06;5031129;28;20057;-88
2023/09/27 00:54:31;;;;;;;20.73;15.05;;;;;;;13.89;100.00;101520.66;5048607;28;20136;-87
2023/09/27 00:57:01;;;;;;;21.27;15.85;;;;;;;13.87;100.00;101522.66;5049765;28;20029;-87
2023/09/27 00:59:28;;;;;;;19.88;15.20;;;;;;;13.85;100.00;101523.84;5049314;28;20028;-86
2023/09/27 01:01:55;;;;;;;16.42;13.60;;;;;;;13.80;100.00;101508.22;5043705;28;20036;-87
2023/09/27 01:04:21;;;;;;;17.45;15.02;;;;;;;13.75;100.00;101499.84;5021527;28;20546;-87
2023/09/27 01:06:47;;;;;;;17.67;12.93;;;;;;;13.60;100.00;101496.09;5025425;28;20507;-87
2023/09/27 01:09:12;;;;;;;15.53;13.03;;;;;;;13.52;100.00;101500.44;5031723;28;20183;-88
2023/09/27 01:11:38;;;;;;;15.73;12.53;;;;;;;13.50;100.00;101502.44;5047245;28;20024;-87
2023/09/27 01:14:04;;;;;;;16.17;13.15;;;;;;;13.50;100.00;101513.16;5048456;28;20037;-87
2023/09/27 01:16:29;;;;;;;14.37;12.47;;;;;;;13.51;100.00;101501.47;5038848;28;20116;-87
2023/09/27 01:19:00;;;;;;;16.67;13.27;;;;;;;13.50;100.00;101504.28;5014007;28;20033;-86
2023/09/27 01:21:26;;;;;;;16.63;13.98;;;;;;;13.51;100.00;101497.94;5021422;28;20051;-87
2023/09/27 01:23:51;;;;;;;17.95;12.00;;;;;;;13.47;100.00;101488.53;5030799;28;20559;-87
2023/09/27 01:26:18;;;;;;;13.82;11.40;;;;;;;13.39;100.00;101473.25;5016295;28;20039;-88
2023/09/27 01:28:47;;;;;;;12.90;10.13;;;;;;;13.33;100.00;101465.03;5020438;28;20035;-87
2023/09/27 01:31:13;;;;;;;17.92;13.75;;;;;;;13.30;100.00;101458.16;5038549;28;20024;-88
2023/09/27 01:33:39;;;;;;;15.85;12.23;;;;;;;13.33;100.00;101473.91;5029296;28;20193;-87
2023/09/27 01:36:05;;;;;;;16.90;12.85;;;;;;;13.29;100.00;101472.53;5030801;28;20036;-87
2023/09/27 01:38:31;;;;;;;16.27;11.85;;;;;;;13.22;100.00;101471.47;5045166;28;20056;-86
2023/09/27 01:40:57;;;;;;;18.23;12.90;;;;;;;13.19;100.00;101463.78;5024040;28;20068;-87
2023/09/27 01:43:22;;;;;;;16.67;11.35;;;;;;;13.20;100.00;101466.28;5062499;28;20033;-87
2023/09/27 01:45:48;;;;;;;18.50;12.18;;;;;;;13.14;100.00;101460.75;5041086;28;20193;-86
2023/09/27 01:48:13;;;;;;;13.70;10.83;;;;;;;13.04;100.00;101442.09;5024268;28;20055;-87
2023/09/27 01:50:39;;;;;;;14.53;12.67;;;;;;;12.97;100.00;101431.19;5026038;28;20041;-86
2023/09/27 01:53:05;;;;;;;15.50;11.53;;;;;;;12.87;100.00;101433.97;5022724;28;20503;-86
2023/09/27 01:55:31;;;;;;;20.13;13.15;;;;;;;12.82;100.00;101428.25;5026629;28;20032;-87
2023/09/27 01:57:56;;;;;;;16.50;13.40;;;;;;;12.86;100.00;101434.16;5043299;28;20029;-86
2023/09/27 02:00:22;;;;;;;16.53;12.57;;;;;;;12.79;100.00;101427.75;5028683;28;20072;-87
2023/09/27 02:02:49;;;;;;;17.17;11.85;;;;;;;12.73;100.00;101428.38;5044260;28;20029;-87
2023/09/27 02:05:14;;;;;;;14.93;12.00;;;;;;;12.65;100.00;101427.34;5013776;28;20041;-86
2023/09/27 02:07:40;;;;;;;14.10;10.98;;;;;;;12.63;100.00;101432.03;5022110;28;20037;-86
2023/09/27 02:10:09;;;;;;;16.60;11.73;;;;;;;12.61;100.00;101422.47;5028893;28;20111;-86
2023/09/27 02:12:36;;;;;;;17.35;12.68;;;;;;;12.65;100.00;101454.13;5016169;28;20057;-86
2023/09/27 02:15:03;;;;;;;15.38;12.48;;;;;;;12.63;100.00;101455.31;5013399;28;20114;-87
2023/09/27 02:17:28;;;;;;;;;;;;;;;12.58;100.00;101458.44;5022723;28;20025;-86
2023/09/27 02:19:54;;;;;;;15.00;11.65;;;;;;;12.60;100.00;101475.22;5041937;28;20351;-86
2023/09/27 02:22:20;;;;;;;;;;;;;;;12.58;100.00;101482.56;5042473;28;20056;-86
2023/09/27 02:24:45;;;;;;;18.75;13.95;;;;;;;12.53;100.00;101492.91;5041964;28;19916;-86
2023/09/27 02:27:10;;;;;;;19.60;15.13;;;;;;;12.46;100.00;101494.53;5026655;28;20029;-87
2023/09/27 02:29:40;;;;;;;15.10;11.80;;;;;;;12.46;100.00;101513.28;5016580;28;20033;-86
2023/09/27 02:32:07;;;;;;;16.42;12.05;;;;;;;12.40;100.00;101508.53;5049827;28;20041;-86
2023/09/27 02:34:33;;;;;;;13.75;11.07;;;;;;;12.40;100.00;101519.25;5043359;28;20103;-87
2023/09/27 02:36:58;;;;;;;16.45;12.57;;;;;;;12.33;100.00;101504.81;5033864;28;20033;-87
2023/09/27 02:39:25;;;;;;;24.48;16.33;;;;;;;12.36;100.00;101520.56;5057032;28;20471;-86
2023/09/27 02:41:50;;;;;;;18.48;13.55;;;;;;;12.29;100.00;101508.78;5028830;28;20051;-87
2023/09/27 02:44:16;;;;;;;15.52;12.60;;;;;;;12.24;100.00;101506.56;5033163;28;20108;-86
2023/09/27 02:46:44;;;;;;;22.15;15.57;;;;;;;12.22;100.00;101512.09;5048715;28;20136;-87
2023/09/27 02:49:09;;;;;;;22.15;15.27;;;;;;;12.25;100.00;101517.13;5024194;28;20052;-87
2023/09/27 02:51:36;;;;;;;19.70;14.15;;;;;;;12.28;100.00;101518.66;5034955;28;20025;-86
2023/09/27 02:54:01;;;;;;;16.23;12.15;;;;;;;12.25;100.00;101519.81;5040494;28;20017;-88
2023/09/27 02:56:26;;;;;;;21.27;14.50;;;;;;;12.20;100.00;101513.25;5031284;28;20033;-86
2023/09/27 02:58:52;;;;;;;17.20;13.30;;;;;;;12.16;100.00;101502.00;5027183;28;20033;-87
2023/09/27 03:01:18;;;;;;;18.00;12.90;;;;;;;12.21;100.00;101518.44;5029225;28;20033;-87
2023/09/27 03:03:44;;;;;;;16.95;12.85;;;;;;;12.14;100.00;101505.81;5033571;28;20028;-87
2023/09/27 03:06:14;;;;;;;16.93;12.47;;;;;;;12.06;100.00;101487.88;5020844;28;20033;-87
2023/09/27 03:08:40;;;;;;;13.30;11.57;;;;;;;12.04;100.00;101481.81;5020102;28;20040;-87
2023/09/27 03:11:06;;;;;;;13.55;12.13;;;;;;;11.99;100.00;101476.94;5028636;28;20017;-86
2023/09/27 03:13:33;;;;;;;15.30;11.27;;;;;;;11.95;100.00;101478.22;5032746;28;20075;-86
2023/09/27 03:15:58;;;;;;;20.65;14.07;;;;;;;11.97;100.00;101478.91;5041909;28;20026;-86
2023/09/27 03:18:24;;;;;;;15.13;11.90;;;;;;;12.07;100.00;101513.63;5029749;28;20099;-87
2023/09/27 03:20:51;;;;;;;18.27;13.10;;;;;;;12.06;100.00;101505.75;5030080;28;20063;-86
2023/09/27 03:23:17;;;;;;;20.23;13.05;;;;;;;12.12;100.00;101515.84;5015858;28;20080;-86
2023/09/27 03:25:43;;;;;;;21.15;15.25;;;;;;;12.16;100.00;101534.13;5028803;28;20025;-87
2023/09/27 03:28:09;;;;;;;22.45;15.40;;;;;;;12.06;100.00;101529.81;5015752;28;20096;-86
2023/09/27 03:30:35;;;;;;;18.27;13.07;;;;;;;11.93;100.00;101517.66;5035694;28;20029;-86
2023/09/27 03:33:01;;;;;;;18.37;13.33;;;;;;;11.84;100.00;101500.66;5013433;28;20395;-86
2023/09/27 03:35:26;;;;;;;19.73;15.27;;;;;;;11.86;100.00;101510.38;5018602;28;20029;-86
2023/09/27 03:37:52;;;;;;;16.42;12.38;;;;;;;11.93;100.00;101530.22;5007270;28;20038;-88
2023/09/27 03:40:17;;;;;;;15.27;11.93;;;;;;;11.85;100.00;101528.28;5038102;28;20040;-88
2023/09/27 03:42:44;;;;;;;19.50;12.23;;;;;;;11.85;100.00;101528.28;5023006;28;20040;-87
2023/09/27 03:45:14;;;;;;;19.08;12.38;;;;;;;11.78;100.00;101514.66;5026374;28;20033;-86
2023/09/27 03:47:42;;;;;;;15.93;12.57;;;;;;;11.72;100.00;101501.88;5018657;28;20194;-86
2023/09/27 03:50:08;;;;;;;21.65;14.57;;;;;;;11.72;100.00;101501.88;5041394;28;20028;-86
2023/09/27 03:52:34;;;;;;;16.17;12.40;;;;;;;11.82;100.00;101531.25;5027233;28;20033;-86
2023/09/27 03:55:00;;;;;;;16.42;12.82;;;;;;;11.81;100.00;101533.06;5027562;28;20036;-86
2023/09/27 03:57:25;;;;;;;19.35;13.90;;;;;;;11.75;100.00;101527.47;5040778;28;20422;-87
2023/09/27 03:59:50;;;;;;;23.57;14.67;;;;;;;11.71;100.00;101521.63;5033658;28;20155;-86
2023/09/27 04:02:16;;;;;;;26.67;18.80;;;;;;;11.81;100.00;101541.09;5025919;28;20041;-87
2023/09/27 04:04:42;;;;;;;22.25;16.85;;;;;;;11.82;100.00;101556.19;5036944;28;20282;-89
2023/09/27 04:07:07;;;;;;;19.07;14.93;;;;;;;11.74;100.00;101537.34;5024239;28;20041;-87
2023/09/27 04:09:33;;;;;;;22.20;15.67;;;;;;;11.65;100.00;101526.72;5027197;28;20053;-86
2023/09/27 04:11:58;;;;;;;24.03;18.57;;;;;;;11.69;100.00;101531.63;5047184;28;20024;-86
2023/09/27 04:14:23;;;;;;;26.83;17.47;;;;;;;11.76;100.00;101548.75;5038347;28;20044;-87
2023/09/27 04:16:49;;;;;;;24.50;17.07;;;;;;;11.68;100.00;101537.09;5029392;28;20067;-86
2023/09/27 04:19:14;;;;;;;23.90;17.23;;;;;;;11.59;100.00;101522.81;5029353;28;20036;-87
2023/09/27 04:21:39;;;;;;;23.27;15.80;;;;;;;11.62;100.00;101534.03;5051949;28;20029;-86
2023/09/27 04:24:06;;;;;;;22.57;17.70;;;;;;;11.62;100.00;101535.88;5030382;28;20033;-86
2023/09/27 04:26:32;;;;;;;23.00;16.98;;;;;;;11.60;100.00;101533.34;5035584;28;20813;-86
2023/09/27 04:28:59;;;;;;;19.95;14.52;;;;;;;11.62;100.00;101530.53;5059373;28;20050;-88
2023/09/27 04:31:25;;;;;;;21.25;16.05;;;;;;;11.59;100.00;101542.38;5060235;28;20058;-86
2023/09/27 04:33:51;;;;;;;24.83;17.58;;;;;;;11.65;100.00;101543.59;5024207;28;20490;-87
2023/09/27 04:36:17;;;;;;;23.60;19.05;;;;;;;11.76;100.00;101561.28;5020447;28;20056;-86
2023/09/27 04:38:44;;;;;;;34.25;22.58;;;;;;;11.82;100.00;101571.38;5024796;28;20457;-87
2023/09/27 04:41:09;;;;;;;36.75;22.55;;;;;;;11.79;100.00;101583.22;5022258;28;20199;-86
2023/09/27 04:43:35;;;;;;;25.83;17.13;;;;;;;11.59;100.00;101558.44;5043344;28;20021;-86
2023/09/27 04:46:00;;;;;;;27.00;16.80;;;;;;;11.49;100.00;101552.28;5030444;28;20120;-88
2023/09/27 04:48:25;;;;;;;32.57;21.33;;;;;;;11.53;100.00;101568.88;5021765;28;20028;-86
2023/09/27 04:50:51;;;;;;;25.27;16.70;;;;;;;11.48;100.00;101560.47;5037381;28;20029;-86
2023/09/27 04:53:16;;;;;;;24.40;18.00;;;;;;;11.51;100.00;101552.13;5061312;28;20049;-86
2023/09/27 04:55:41;;;;;;;22.47;17.20;;;;;;;11.47;100.00;101548.06;5023160;28;20029;-88
2023/09/27 04:58:07;;;;;;;27.10;20.30;;;;;;;11.48;100.00;101539.06;5055572;28;20376;-87
2023/09/27 05:00:32;;;;;;;24.00;17.03;;;;;;;11.48;100.00;101544.41;5042957;28;20035;-87
2023/09/27 05:02:58;;;;;;;31.73;20.27;;;;;;;11.54;100.00;101555.38;5024600;28;20356;-86
2023/09/27 05:05:23;;;;;;;29.47;21.07;;;;;;;11.63;100.00;101564.31;5052212;28;20404;-86
2023/09/27 05:07:48;;;;;;;32.43;21.40;;;;;;;11.63;100.00;101566.97;5041204;28;20036;-86
2023/09/27 05:10:14;;;;;;;39.77;25.70;;;;;;;11.64;100.00;101563.31;5050343;28;20029;-86
2023/09/27 05:12:40;;;;;;;31.35;20.00;;;;;;;11.65;100.00;101570.34;5049133;28;20402;-86
2023/09/27 05:15:09;;;;;;;35.63;23.03;;;;;;;11.56;100.00;101560.53;5025395;28;20045;-86
2023/09/27 05:17:35;;;;;;;25.40;17.73;;;;;;;11.54;100.00;101562.53;5019982;28;20030;-86
2023/09/27 05:20:01;;;;;;;36.40;25.73;;;;;;;11.70;100.00;101573.41;5030580;28;20547;-86
2023/09/27 05:22:26;;;;;;;36.65;25.35;;;;;;;11.77;100.00;101587.88;5048383;28;20245;-86
2023/09/27 05:24:51;;;;;;;25.67;18.83;;;;;;;11.80;100.00;101582.25;5035568;28;20049;-87
2023/09/27 05:27:17;;;;;;;35.47;24.77;;;;;;;11.79;100.00;101585.06;5027389;28;20460;-87
2023/09/27 05:29:42;;;;;;;31.20;20.93;;;;;;;11.90;100.00;101595.59;5021813;28;20037;-87
2023/09/27 05:32:08;;;;;;;34.85;24.02;;;;;;;11.97;100.00;101588.63;5010387;28;20681;-87
2023/09/27 05:34:34;;;;;;;43.38;27.52;;;;;;;12.10;100.00;101596.28;5024265;28;20021;-86
2023/09/27 05:37:00;;;;;;;34.97;23.37;;;;;;;12.08;100.00;101586.72;5015624;28;20041;-87
2023/09/27 05:39:25;;;;;;;47.55;30.58;;;;;;;12.00;100.00;101576.78;5037593;28;20041;-86
2023/09/27 05:41:51;;;;;;;41.07;27.13;;;;;;;12.07;100.00;101583.22;5030886;28;20072;-86
2023/09/27 05:44:17;;;;;;;48.83;30.63;;;;;;;12.06;100.00;101575.31;5030495;28;20053;-87
2023/09/27 05:46:43;;;;;;;42.08;29.80;;;;;;;12.13;100.00;101571.91;5037328;28;20032;-87
2023/09/27 05:49:11;;;;;;;33.13;23.25;;;;;;;12.20;100.00;101572.97;5025484;28;20116;-86
2023/09/27 05:51:36;;;;;;;48.17;28.73;;;;;;;12.41;100.00;101577.19;5024377;28;20028;-86
2023/09/27 05:54:02;;;;;;;43.27;29.83;;;;;;;12.69;100.00;101583.28;5045743;28;20407;-87
2023/09/27 05:56:28;;;;;;;43.70;28.48;;;;;;;12.88;100.00;101592.94;5056721;28;20028;-87
2023/09/27 05:58:54;;;;;;;48.75;28.15;;;;;;;12.98;100.00;101587.47;5027711;28;20021;-87
2023/09/27 06:01:20;;;;;;;41.53;28.33;;;;;;;13.14;100.00;101592.13;5030991;28;20083;-86
2023/09/27 06:03:49;;;;;;;40.80;29.25;;;;;;;13.23;100.00;101585.81;5036376;28;20036;-86
2023/09/27 06:06:14;;;;;;;39.38;26.75;;;;;;;13.24;100.00;101576.75;5025547;28;20079;-86
2023/09/27 06:08:40;;;;;;;35.23;25.27;;;;;;;13.35;100.00;101573.81;5034555;28;20032;-86
2023/09/27 06:11:07;;;;;;;40.05;27.00;;;;;;;13.42;100.00;101569.50;5039594;28;20024;-86
2023/09/27 06:13:32;;;;;;;31.60;22.27;;;;;;;13.50;100.00;101577.56;5018514;28;20067;-87
2023/09/27 06:16:01;;;;;;;34.73;25.47;;;;;;;13.66;100.00;101589.38;5031059;28;20048;-86
2023/09/27 06:18:27;;;;;;;40.05;25.52;;;;;;;13.72;100.00;101580.69;5033104;28;20033;-87
2023/09/27 06:20:52;;;;;;;32.87;25.27;;;;;;;13.84;100.00;101573.16;5033933;28;20540;-87
2023/09/27 06:23:19;;;;;;;33.07;21.53;;;;;;;14.55;100.00;101604.84;5048731;28;20271;-87
2023/09/27 06:25:46;;;;;;;29.42;21.33;;;;;;;15.40;100.00;101600.84;5035124;28;20557;-86
2023/09/27 06:28:15;;;;;;;24.13;18.60;;;;;;;15.94;100.00;101574.00;5023592;28;20044;-86
2023/09/27 06:30:41;;;;;;;21.60;17.08;;;;;;;16.53;100.00;101572.59;5024652;28;20067;-86
2023/09/27 06:33:08;;;;;;;18.20;14.75;;;;;;;16.81;100.00;101519.78;5024181;28;20076;-86
2023/09/27 06:35:34;;;;;;;24.10;16.17;;;;;;;17.38;100.00;101495.84;5016186;28;20131;-86
2023/09/27 06:38:00;;;;;;;17.20;13.50;;;;;;;17.28;100.00;101416.03;5041204;28;20113;-86
2023/09/27 06:40:26;;;;;;;15.90;11.27;;;;;;;17.78;100.00;101420.69;5031472;28;20319;-86
2023/09/27 06:42:52;;;;;;;17.83;11.93;;;;;;;17.79;100.00;101341.31;5045849;28;20067;-86
2023/09/27 06:45:17;;;;;;;14.73;12.05;;;;;;;17.89;100.00;101282.44;5022306;28;20032;-87
2023/09/27 06:47:45;;;;;;;15.47;10.47;;;;;;;17.83;100.00;101273.25;5016846;28;20119;-87
2023/09/27 06:50:11;;;;;;;17.40;12.30;;;;;;;18.20;100.00;101229.81;5047704;28;20033;-86
2023/09/27 06:52:39;;;;;;;19.23;11.63;;;;;;;18.05;100.00;101135.38;5053907;28;20102;-88
2023/09/27 06:55:19;;;;;;;13.77;10.93;;;;;;;18.24;100.00;101109.44;5028069;28;20056;-87
2023/09/27 06:57:49;;;;;;;14.73;11.65;;;;;;;18.17;100.00;101041.91;5018789;28;20036;-86
2023/09/27 07:00:35;;;;;;;15.55;10.93;;;;;;;18.33;100.00;101016.31;5008144;28;20127;-86
2023/09/27 07:03:00;;;;;;;;;;;;;;;18.08;100.00;100997.19;5028517;28;20049;-86
2023/09/27 07:05:26;;;;;;;13.20;11.35;;;;;;;18.53;100.00;101055.03;5030408;28;20557;-86
2023/09/27 07:07:53;;;;;;;13.10;11.77;;;;;;;18.85;100.00;100971.41;5022705;28;20041;-86
2023/09/27 07:10:19;;;;;;;24.20;12.68;;;;;;;18.39;100.00;100937.13;5026180;28;20052;-86
2023/09/27 07:12:46;;;;;;;18.98;11.25;;;;;;;18.50;100.00;100933.78;5032353;28;20070;-87
2023/09/27 07:15:14;;;;;;;15.20;11.35;;;;;;;18.98;100.00;100993.00;5034162;28;20595;-87
2023/09/27 07:17:40;;;;;;;15.73;11.98;;;;;;;18.33;100.00;100832.53;5040807;28;20426;-86
2023/09/27 07:20:23;;;;;;;13.63;11.93;;;;;;;18.18;100.00;100929.25;5025327;28;20031;-86
2023/09/27 07:22:49;;;;;;;21.45;12.75;;;;;;;18.51;100.00;100978.69;5034449;28;20426;-86
2023/09/27 07:25:18;;;;;;;13.93;10.15;;;;;;;18.70;100.00;100959.94;5027019;28;20075;-86
2023/09/27 07:27:46;;;;;;;12.88;9.57;;;;;;;19.23;100.00;100980.66;5039603;28;20021;-86
2023/09/27 07:30:11;;;;;;;13.45;9.85;;;;;;;19.42;100.00;100970.78;5024045;28;20060;-86
2023/09/27 07:32:41;;;;;;;12.55;9.85;;;;;;;19.73;100.00;100895.00;5028996;28;20041;-88
2023/09/27 07:35:09;;;;;;;13.57;10.30;;;;;;;19.43;100.00;100761.28;5041892;28;20037;-87
2023/09/27 07:37:36;;;;;;;15.63;11.50;;;;;;;19.66;100.00;100785.84;5042210;28;20426;-86
2023/09/27 07:40:04;;;;;;;25.88;11.82;;;;;;;20.19;100.00;100706.78;5022244;28;20030;-86
2023/09/27 07:42:30;;;;;;;11.00;9.73;;;;;;;19.90;100.00;100620.84;5046312;28;20044;-86
2023/09/27 07:44:55;;;;;;;12.00;8.20;;;;;;;20.41;100.00;100706.28;5026401;28;20025;-86
2023/09/27 07:47:21;;;;;;;10.15;8.73;;;;;;;20.84;100.00;100665.47;5037017;28;20033;-86
2023/09/27 07:49:46;;;;;;;11.50;9.97;;;;;;;20.92;100.00;100435.53;5049134;28;20040;-86
2023/09/27 07:52:11;;;;;;;11.33;9.50;;;;;;;20.87;100.00;100406.41;5093893;22;20093;-74
2023/09/27 07:54:37;;;;;;;11.43;10.23;;;;;;;20.40;100.00;100387.44;5073174;28;20040;-74
2023/09/27 07:57:02;;;;;;;13.00;9.30;;;;;;;21.03;100.00;100590.22;5062958;28;20032;-76
2023/09/27 07:59:28;;;;;;;;;;;;;;;20.70;100.00;100296.97;5065279;28;20029;-76
2023/09/27 08:01:54;;;;;;;13.30;10.27;;;;;;;20.93;100.00;100432.59;5080338;28;19934;-76
2023/09/27 08:04:19;;;;;;;12.30;10.10;;;;;;;20.86;100.00;100345.03;5065054;28;20017;-77
2023/09/27 08:06:46;;;;;;;10.15;9.07;;;;;;;20.89;100.00;100447.69;5060281;28;20483;-76
2023/09/27 08:09:14;;;;;;;12.60;9.30;;;;;;;21.48;100.00;100353.34;5064846;28;20078;-75
2023/09/27 08:11:40;;;;;;;12.68;9.35;;;;;;;20.66;100.00;100356.31;5060579;28;20039;-77
2023/09/27 08:14:06;;;;;;;13.80;9.57;;;;;;;20.94;100.00;100483.06;5068883;28;20009;-75
2023/09/27 08:16:31;;;;;;;11.75;8.77;;;;;;;21.71;100.00;100360.53;5064371;28;20390;-73
2023/09/27 08:18:57;;;;;;;11.37;9.57;;;;;;;21.11;100.00;100176.47;5064248;28;20040;-74
2023/09/27 08:21:22;;;;;;;14.33;9.30;;;;;;;21.99;100.00;100477.59;5063111;28;20036;-75
2023/09/27 08:23:47;;;;;;;9.03;8.13;;;;;;;22.96;100.00;100537.13;5068728;28;20610;-75
2023/09/27 08:26:13;;;;;;;12.23;8.27;;;;;;;23.56;100.00;100273.94;5064147;28;20418;-76
2023/09/27 08:28:39;;;;;;;12.20;8.40;;;;;;;24.05;98.11;100041.22;5064321;28;20043;-76
2023/09/27 08:31:05;;;;;;;6.82;6.10;;;;;;;25.09;94.12;100067.47;5072034;28;20044;-76
2023/09/27 08:33:30;;;;;;;13.20;8.20;;;;;;;25.23;88.97;99798.97;5070596;28;20032;-76
2023/09/27 08:35:56;;;;;;;13.10;7.27;;;;;;;24.88;87.81;99739.91;5069305;28;20490;-76
2023/09/27 08:38:21;;;;;;;7.50;6.70;;;;;;;25.15;89.19;100026.25;5068158;28;20055;-77
2023/09/27 08:40:48;;;;;;;10.10;8.00;;;;;;;25.06;84.96;99706.47;5066837;28;20379;-74
2023/09/27 08:43:17;;;;;;;7.13;6.25;;;;;;;26.27;82.88;99921.00;5067784;28;20028;-77
2023/09/27 08:45:45;;;;;;;9.10;7.18;;;;;;;26.02;84.46;100023.19;5066469;28;20039;-76
2023/09/27 08:48:13;;;;;;;8.80;7.28;;;;;;;25.93;80.82;99776.06;5066489;28;20028;-75
2023/09/27 08:50:38;;;;;;;9.15;8.25;;;;;;;25.02;82.68;99765.47;5063976;28;20028;-77
2023/09/27 08:53:04;;;;;;;11.63;9.38;;;;;;;25.26;83.23;99956.88;5070248;28;20427;-77
2023/09/27 08:55:30;;;;;;;12.25;9.10;;;;;;;25.54;79.19;99604.75;5074162;28;20025;-77
2023/09/27 08:57:56;;;;;;;12.93;8.85;;;;;;;24.50;80.76;99564.94;5072900;28;20035;-77
2023/09/27 09:00:26;;;;;;;9.73;7.82;;;;;;;25.86;79.14;99873.97;5072923;28;20124;-75
2023/09/27 09:02:57;;;;;;;12.15;7.78;;;;;;;26.04;75.68;99539.66;5073625;28;20012;-74
2023/09/27 09:05:23;;;;;;;10.50;8.40;;;;;;;25.84;75.06;99436.03;5071422;28;20036;-76
2023/09/27 09:07:50;;;;;;;9.32;7.63;;;;;;;24.22;78.58;99364.69;5067118;28;20028;-75
2023/09/27 09:10:16;;;;;;;8.65;7.45;;;;;;;23.24;83.86;99676.78;5067522;28;20466;-77
2023/09/27 09:12:43;;;;;;;7.90;5.82;;;;;;;24.85;85.33;100311.03;5067481;28;20071;-75
2023/09/27 09:15:36;;;;;;;11.82;6.88;;;;;;;25.67;79.53;99928.50;5067114;28;20063;-75
2023/09/27 09:18:06;;;;;;;9.38;5.15;;;;;;;26.82;76.63;99936.38;5061814;28;20037;-73
2023/09/27 09:20:58;;;;;;;8.05;6.65;;;;;;;26.10;73.49;99374.38;5065541;28;20536;-75
2023/09/27 09:23:34;;;;;;;7.20;5.68;;;;;;;26.50;74.85;99765.31;5065068;28;20049;-76
2023/09/27 09:26:01;;;;;;;8.35;6.45;;;;;;;27.05;72.46;99630.69;5074657;28;20030;-76
2023/09/27 09:28:27;;;;;;;9.05;8.00;;;;;;;26.23;69.79;99074.69;5070999;28;20501;-73
2023/09/27 09:30:54;;;;;;;9.85;6.88;;;;;;;26.69;71.03;99445.09;5067185;28;20036;-75
2023/09/27 09:33:20;;;;;;;10.45;5.70;;;;;;;27.88;69.72;99669.28;5066685;28;20020;-76
2023/09/27 09:35:45;;;;;;;;;;;;;;;27.77;66.46;99287.53;5063417;28;20039;-76
2023/09/27 09:38:11;;;;;;;9.10;5.38;;;;;;;27.58;66.41;99290.41;5070259;28;20398;-76
2023/09/27 09:40:53;;;;;;;8.37;7.27;;;;;;;26.79;64.43;98694.84;5062515;28;20020;-76
2023/09/27 09:43:38;;;;;;;12.40;6.45;;;;;;;27.47;65.50;99245.22;5065145;28;20765;-77
2023/09/27 09:46:06;;;;;;;7.30;5.07;;;;;;;28.32;62.74;99182.13;5074582;28;20063;-77
2023/09/27 09:48:37;;;;;;;6.78;5.43;;;;;;;27.96;64.11;99344.94;5066289;28;20040;-75
2023/09/27 09:51:07;;;;;;;9.55;6.53;;;;;;;27.73;62.01;98861.59;5070389;28;20041;-77
2023/09/27 09:53:40;;;;;;;6.82;5.68;;;;;;;28.60;62.91;99359.19;5067875;28;20016;-76
2023/09/27 09:56:10;;;;;;;5.28;4.43;;;;;;;28.94;61.77;99253.34;5072925;28;20068;-76
2023/09/27 09:58:54;;;;;;;8.63;5.97;;;;;;;28.06;61.69;98935.16;5069574;28;20024;-74
2023/09/27 10:01:21;;;;;;;6.60;5.70;;;;;;;26.30;65.32;98918.34;5065210;28;20051;-75
2023/09/27 10:03:49;;;;;;;8.27;5.03;;;;;;;26.88;66.76;99413.00;5069363;28;20884;-74
2023/09/27 10:06:22;;;;;;;6.18;5.47;;;;;;;27.57;65.79;99475.22;5066198;28;20035;-75
2023/09/27 10:08:48;;;;;;;11.07;6.38;;;;;;;27.19;66.06;99384.19;5069999;28;20040;-75
2023/09/27 10:11:14;;;;;;;;;;;;;;;28.47;64.86;99695.00;5070514;28;20035;-74
2023/09/27 10:13:41;;;;;;;6.88;5.80;;;;;;;28.18;63.14;99242.59;5073261;28;19912;-74
2023/09/27 10:16:08;;;;;;;9.27;6.65;;;;;;;28.27;64.00;99412.75;5070105;28;20506;-75
2023/09/27 10:18:38;;;;;;;10.63;4.68;;;;;;;28.83;61.95;99359.13;5065847;28;20032;-74
2023/09/27 10:21:03;;;;;;;9.30;5.35;;;;;;;28.89;61.61;99344.13;5066584;28;20032;-76
2023/09/27 10:23:45;;;;;;;7.70;5.43;;;;;;;28.46;61.62;99209.44;5069684;28;20024;-77
2023/09/27 10:26:36;;;;;;;7.28;5.05;;;;;;;28.43;60.26;99068.19;5066381;28;20289;-76
2023/09/27 10:29:01;;;;;;;7.63;5.47;;;;;;;27.40;59.16;98459.28;5069590;28;20043;-75
2023/09/27 10:31:27;;;;;;;8.82;5.07;;;;;;;26.06;62.07;98508.53;5067564;28;20454;-75
2023/09/27 10:33:53;;;;;;;;;;;;;;;26.46;63.13;98900.44;5074161;28;20153;-76
2023/09/27 10:36:18;;;;;;;5.45;4.53;;;;;;;26.60;64.17;99113.00;5065670;28;19912;-76
2023/09/27 10:38:44;;;;;;;5.73;3.97;;;;;;;26.64;66.14;99417.81;5065619;28;20032;-76
2023/09/27 10:41:38;;;;;;;5.20;3.50;;;;;;;27.02;69.87;99936.13;5065854;28;20050;-74
2023/09/27 10:44:04;;;;;;;9.82;5.18;;;;;;;27.01;69.35;99785.78;5084329;28;20032;-76
2023/09/27 10:46:43;;;;;;;6.80;5.00;;;;;;;26.78;69.50;99762.81;5065716;28;20123;-76
2023/09/27 10:49:09;;;;;;;8.05;5.93;;;;;;;26.72;67.56;99511.03;5058316;28;20036;-76
2023/09/27 10:51:34;;;;;;;8.55;5.20;;;;;;;27.25;67.24;99637.78;5060985;28;20497;-75
2023/09/27 10:53:59;;;;;;;8.77;4.82;;;;;;;27.13;67.44;99586.97;5064170;28;20028;-77
2023/09/27 10:56:25;;;;;;;7.95;3.70;;;;;;;27.25;67.50;99632.28;5067133;28;20097;-76
2023/09/27 10:58:50;;;;;;;6.32;4.40;;;;;;;26.89;64.94;99192.03;5068714;28;20035;-75
2023/09/27 11:01:23;;;;;;;4.88;3.55;;;;;;;26.83;64.10;99176.81;5065709;28;20392;-76
2023/09/27 11:03:59;;;;;;;6.10;4.47;;;;;;;27.01;61.74;98932.13;5062884;28;20532;-75
2023/09/27 11:06:24;;;;;;;5.28;3.30;;;;;;;27.19;62.91;99121.22;5068363;28;20040;-75
2023/09/27 11:08:50;;;;;;;5.90;4.05;;;;;;;26.32;59.98;98435.50;5065615;28;20051;-77
2023/09/27 11:11:15;;;;;;;8.93;4.00;;;;;;;26.58;59.91;98552.38;5068886;28;20111;-76